sensor_id;sensor_type;location;lat;lon;timestamp;pressure;altitude;pressure_sealevel;temperature;humidity
30714;BME280;17465;47.934;33.430;2023-04-03T00:01:56;57347.38;;;-140.43;100.00
30714;BME280;17465;47.934;33.430;2023-04-03T00:04:26;57316.66;;;-140.43;100.00
30714;BME280;17465;47.934;33.430;2023-04-03T00:07:00;57306.07;;;-140.43;100.00
30714;BME280;17465;47.934;33.430;2023-04-03T00:09:31;57306.07;;;-140.43;100.00
30714;BME280;17465;47.934;33.430;2023-04-03T00:12:07;57325.14;;;-140.43;100.00
30714;BME280;17465;47.934;33.430;2023-04-03T00:14:35;57330.43;;;-140.43;100.00
30714;BME280;17465;47.934;33.430;2023-04-03T00:17:06;57335.73;;;-140.43;100.00
30714;BME280;17465;47.934;33.430;2023-04-03T00:19:38;57342.08;;;-140.43;100.00
30714;BME280;17465;47.934;33.430;2023-04-03T00:22:08;57345.26;;;-140.43;100.00
30714;BME280;17465;47.934;33.430;2023-04-03T00:24:39;57345.26;;;-140.43;100.00
30714;BME280;17465;47.934;33.430;2023-04-03T00:27:16;57342.08;;;-140.43;100.00
30714;BME280;17465;47.934;33.430;2023-04-03T00:29:48;57354.79;;;-140.43;100.00
30714;BME280;17465;47.934;33.430;2023-04-03T00:32:19;57326.20;;;-140.43;100.00
30714;BME280;17465;47.934;33.430;2023-04-03T00:34:49;57342.08;;;-140.43;100.00
30714;BME280;17465;47.934;33.430;2023-04-03T00:37:24;57330.43;;;-140.43;100.00
30714;BME280;17465;47.934;33.430;2023-04-03T00:39:55;57337.84;;;-140.43;100.00
30714;BME280;17465;47.934;33.430;2023-04-03T00:42:25;57335.73;;;-140.43;100.00
30714;BME280;17465;47.934;33.430;2023-04-03T00:47:31;57324.07;;;-140.43;100.00
30714;BME280;17465;47.934;33.430;2023-04-03T00:50:07;57324.07;;;-140.43;100.00
30714;BME280;17465;47.934;33.430;2023-04-03T00:52:33;57319.84;;;-140.43;100.00
30714;BME280;17465;47.934;33.430;2023-04-03T00:55:07;57334.67;;;-140.43;100.00
30714;BME280;17465;47.934;33.430;2023-04-03T00:57:38;57326.20;;;-140.43;100.00
30714;BME280;17465;47.934;33.430;2023-04-03T01:00:11;57315.61;;;-140.43;100.00
30714;BME280;17465;47.934;33.430;2023-04-03T01:02:42;57312.43;;;-140.43;100.00
30714;BME280;17465;47.934;33.430;2023-04-03T01:05:15;57341.02;;;-140.43;100.00
30714;BME280;17465;47.934;33.430;2023-04-03T01:07:47;57313.48;;;-140.43;100.00
30714;BME280;17465;47.934;33.430;2023-04-03T01:10:19;57323.02;;;-140.43;100.00
30714;BME280;17465;47.934;33.430;2023-04-03T01:12:50;57316.66;;;-140.43;100.00
30714;BME280;17465;47.934;33.430;2023-04-03T01:15:23;57320.90;;;-140.43;100.00
30714;BME280;17465;47.934;33.430;2023-04-03T01:18:00;57316.66;;;-140.43;100.00
30714;BME280;17465;47.934;33.430;2023-04-03T01:20:36;57328.31;;;-140.43;100.00
30714;BME280;17465;47.934;33.430;2023-04-03T01:25:51;57334.67;;;-140.43;100.00
30714;BME280;17465;47.934;33.430;2023-04-03T01:28:33;57331.49;;;-140.43;100.00
30714;BME280;17465;47.934;33.430;2023-04-03T01:31:22;57325.14;;;-140.43;100.00
30714;BME280;17465;47.934;33.430;2023-04-03T01:33:52;57324.07;;;-140.43;100.00
30714;BME280;17465;47.934;33.430;2023-04-03T01:36:28;57339.96;;;-140.43;100.00
30714;BME280;17465;47.934;33.430;2023-04-03T01:39:00;57321.96;;;-140.43;100.00
30714;BME280;17465;47.934;33.430;2023-04-03T01:41:31;57325.14;;;-140.43;100.00
30714;BME280;17465;47.934;33.430;2023-04-03T01:44:01;57328.31;;;-140.43;100.00
30714;BME280;17465;47.934;33.430;2023-04-03T01:46:32;57320.90;;;-140.43;100.00
30714;BME280;17465;47.934;33.430;2023-04-03T01:49:03;57325.14;;;-140.43;100.00
30714;BME280;17465;47.934;33.430;2023-04-03T01:51:34;57352.67;;;-140.43;100.00
30714;BME280;17465;47.934;33.430;2023-04-03T01:54:05;57331.49;;;-140.43;100.00
30714;BME280;17465;47.934;33.430;2023-04-03T01:56:37;57334.67;;;-140.43;100.00
30714;BME280;17465;47.934;33.430;2023-04-03T01:59:08;57334.67;;;-140.43;100.00
30714;BME280;17465;47.934;33.430;2023-04-03T02:01:40;57378.09;;;-140.43;100.00
30714;BME280;17465;47.934;33.430;2023-04-03T02:04:11;57331.49;;;-140.43;100.00
30714;BME280;17465;47.934;33.430;2023-04-03T02:06:42;57331.49;;;-140.43;100.00
30714;BME280;17465;47.934;33.430;2023-04-03T02:09:12;57332.55;;;-140.43;100.00
30714;BME280;17465;47.934;33.430;2023-04-03T02:11:42;57334.67;;;-140.43;100.00
30714;BME280;17465;47.934;33.430;2023-04-03T02:14:13;57333.61;;;-140.43;100.00
30714;BME280;17465;47.934;33.430;2023-04-03T02:16:44;57326.20;;;-140.43;100.00
30714;BME280;17465;47.934;33.430;2023-04-03T02:19:15;57335.73;;;-140.43;100.00
30714;BME280;17465;47.934;33.430;2023-04-03T02:21:45;57335.73;;;-140.43;100.00
30714;BME280;17465;47.934;33.430;2023-04-03T02:24:16;57338.90;;;-140.43;100.00
30714;BME280;17465;47.934;33.430;2023-04-03T02:26:46;57338.90;;;-140.43;100.00
30714;BME280;17465;47.934;33.430;2023-04-03T02:29:17;57338.90;;;-140.43;100.00
30714;BME280;17465;47.934;33.430;2023-04-03T02:31:49;57351.61;;;-140.43;100.00
30714;BME280;17465;47.934;33.430;2023-04-03T02:34:19;57348.43;;;-140.43;100.00
30714;BME280;17465;47.934;33.430;2023-04-03T02:36:50;57341.02;;;-140.43;100.00
30714;BME280;17465;47.934;33.430;2023-04-03T02:39:20;57296.54;;;-140.43;100.00
30714;BME280;17465;47.934;33.430;2023-04-03T02:41:51;57356.91;;;-140.43;100.00
30714;BME280;17465;47.934;33.430;2023-04-03T02:44:21;57331.49;;;-140.43;100.00
30714;BME280;17465;47.934;33.430;2023-04-03T02:46:51;57326.20;;;-140.43;100.00
30714;BME280;17465;47.934;33.430;2023-04-03T02:49:22;57359.03;;;-140.43;100.00
30714;BME280;17465;47.934;33.430;2023-04-03T02:51:52;57342.08;;;-140.43;100.00
30714;BME280;17465;47.934;33.430;2023-04-03T02:54:25;57325.14;;;-140.43;100.00
30714;BME280;17465;47.934;33.430;2023-04-03T02:56:55;57349.49;;;-140.43;100.00
30714;BME280;17465;47.934;33.430;2023-04-03T02:59:25;57333.61;;;-140.43;100.00
30714;BME280;17465;47.934;33.430;2023-04-03T03:01:56;57337.84;;;-140.43;100.00
30714;BME280;17465;47.934;33.430;2023-04-03T03:04:27;57331.49;;;-140.43;100.00
30714;BME280;17465;47.934;33.430;2023-04-03T03:06:58;57301.84;;;-140.43;100.00
30714;BME280;17465;47.934;33.430;2023-04-03T03:09:29;57313.48;;;-140.43;100.00
30714;BME280;17465;47.934;33.430;2023-04-03T03:12:00;57320.90;;;-140.43;100.00
30714;BME280;17465;47.934;33.430;2023-04-03T03:14:30;57339.96;;;-140.43;100.00
30714;BME280;17465;47.934;33.430;2023-04-03T03:17:01;57326.20;;;-140.43;100.00
30714;BME280;17465;47.934;33.430;2023-04-03T03:19:31;57323.02;;;-140.43;100.00
30714;BME280;17465;47.934;33.430;2023-04-03T03:22:05;57335.73;;;-140.43;100.00
30714;BME280;17465;47.934;33.430;2023-04-03T03:24:36;57350.55;;;-140.43;100.00
30714;BME280;17465;47.934;33.430;2023-04-03T03:27:07;57334.67;;;-140.43;100.00
30714;BME280;17465;47.934;33.430;2023-04-03T03:29:38;57337.84;;;-140.43;100.00
30714;BME280;17465;47.934;33.430;2023-04-03T03:32:08;57335.73;;;-140.43;100.00
30714;BME280;17465;47.934;33.430;2023-04-03T03:34:40;57335.73;;;-140.43;100.00
30714;BME280;17465;47.934;33.430;2023-04-03T03:37:10;57355.85;;;-140.43;100.00
30714;BME280;17465;47.934;33.430;2023-04-03T03:39:41;57349.49;;;-140.43;100.00
30714;BME280;17465;47.934;33.430;2023-04-03T03:42:12;57343.14;;;-140.43;100.00
30714;BME280;17465;47.934;33.430;2023-04-03T03:44:44;57359.03;;;-140.43;100.00
30714;BME280;17465;47.934;33.430;2023-04-03T03:47:15;57324.07;;;-140.43;100.00
30714;BME280;17465;47.934;33.430;2023-04-03T03:49:45;57324.07;;;-140.43;100.00
30714;BME280;17465;47.934;33.430;2023-04-03T03:52:15;57343.14;;;-140.43;100.00
30714;BME280;17465;47.934;33.430;2023-04-03T03:54:46;57343.14;;;-140.43;100.00
30714;BME280;17465;47.934;33.430;2023-04-03T03:57:16;57360.08;;;-140.43;100.00
30714;BME280;17465;47.934;33.430;2023-04-03T03:59:50;57346.32;;;-140.43;100.00
30714;BME280;17465;47.934;33.430;2023-04-03T04:02:22;57347.38;;;-140.43;100.00
30714;BME280;17465;47.934;33.430;2023-04-03T04:04:54;57348.43;;;-140.43;100.00
30714;BME280;17465;47.934;33.430;2023-04-03T04:07:26;57323.02;;;-140.43;100.00
30714;BME280;17465;47.934;33.430;2023-04-03T04:09:57;57353.73;;;-140.43;100.00
30714;BME280;17465;47.934;33.430;2023-04-03T04:12:28;57353.73;;;-140.43;100.00
30714;BME280;17465;47.934;33.430;2023-04-03T04:14:58;57364.32;;;-140.43;100.00
30714;BME280;17465;47.934;33.430;2023-04-03T04:17:42;57350.55;;;-140.43;100.00
30714;BME280;17465;47.934;33.430;2023-04-03T04:20:21;57344.20;;;-140.43;100.00
30714;BME280;17465;47.934;33.430;2023-04-03T04:22:56;57362.20;;;-140.43;100.00
30714;BME280;17465;47.934;33.430;2023-04-03T04:25:27;57336.79;;;-140.43;100.00
30714;BME280;17465;47.934;33.430;2023-04-03T04:27:58;57336.79;;;-140.43;100.00
30714;BME280;17465;47.934;33.430;2023-04-03T04:30:28;57341.02;;;-140.43;100.00
30714;BME280;17465;47.934;33.430;2023-04-03T04:33:00;57341.02;;;-140.43;100.00
30714;BME280;17465;47.934;33.430;2023-04-03T04:35:31;57343.14;;;-140.43;100.00
30714;BME280;17465;47.934;33.430;2023-04-03T04:38:02;57335.73;;;-140.43;100.00
30714;BME280;17465;47.934;33.430;2023-04-03T04:40:34;57335.73;;;-140.43;100.00
30714;BME280;17465;47.934;33.430;2023-04-03T04:43:05;57347.38;;;-140.43;100.00
30714;BME280;17465;47.934;33.430;2023-04-03T04:45:35;57363.26;;;-140.43;100.00
30714;BME280;17465;47.934;33.430;2023-04-03T04:48:07;57363.26;;;-140.43;100.00
30714;BME280;17465;47.934;33.430;2023-04-03T04:50:41;57363.26;;;-140.43;100.00
30714;BME280;17465;47.934;33.430;2023-04-03T04:53:12;57353.73;;;-140.43;100.00
30714;BME280;17465;47.934;33.430;2023-04-03T04:55:42;57320.90;;;-140.43;100.00
30714;BME280;17465;47.934;33.430;2023-04-03T04:58:13;57320.90;;;-140.43;100.00
30714;BME280;17465;47.934;33.430;2023-04-03T05:00:44;57355.85;;;-140.43;100.00
30714;BME280;17465;47.934;33.430;2023-04-03T05:03:17;57349.49;;;-140.43;100.00
30714;BME280;17465;47.934;33.430;2023-04-03T05:05:48;57349.49;;;-140.43;100.00
30714;BME280;17465;47.934;33.430;2023-04-03T05:08:19;57348.43;;;-140.43;100.00
30714;BME280;17465;47.934;33.430;2023-04-03T05:10:49;57314.55;;;-140.43;100.00
30714;BME280;17465;47.934;33.430;2023-04-03T05:13:20;57314.55;;;-140.43;100.00
30714;BME280;17465;47.934;33.430;2023-04-03T05:15:50;57311.37;;;-140.43;100.00
30714;BME280;17465;47.934;33.430;2023-04-03T05:18:28;57337.84;;;-140.43;100.00
30714;BME280;17465;47.934;33.430;2023-04-03T05:21:18;57327.25;;;-140.43;100.00
30714;BME280;17465;47.934;33.430;2023-04-03T05:23:49;57331.49;;;-140.43;100.00
30714;BME280;17465;47.934;33.430;2023-04-03T05:26:19;57338.90;;;-140.43;100.00
30714;BME280;17465;47.934;33.430;2023-04-03T05:28:50;57324.07;;;-140.43;100.00
30714;BME280;17465;47.934;33.430;2023-04-03T05:31:20;57324.07;;;-140.43;100.00
30714;BME280;17465;47.934;33.430;2023-04-03T05:33:51;57342.08;;;-140.43;100.00
30714;BME280;17465;47.934;33.430;2023-04-03T05:36:22;57316.66;;;-140.43;100.00
30714;BME280;17465;47.934;33.430;2023-04-03T05:38:52;57331.49;;;-140.43;100.00
30714;BME280;17465;47.934;33.430;2023-04-03T05:41:24;57352.67;;;-140.43;100.00
30714;BME280;17465;47.934;33.430;2023-04-03T05:43:56;57352.67;;;-140.43;100.00
30714;BME280;17465;47.934;33.430;2023-04-03T05:46:28;57331.49;;;-140.43;100.00
30714;BME280;17465;47.934;33.430;2023-04-03T05:48:59;57331.49;;;-140.43;100.00
30714;BME280;17465;47.934;33.430;2023-04-03T05:51:34;57318.78;;;-140.43;100.00
30714;BME280;17465;47.934;33.430;2023-04-03T05:54:12;57345.26;;;-140.43;100.00
30714;BME280;17465;47.934;33.430;2023-04-03T05:56:45;57349.49;;;-140.43;100.00
30714;BME280;17465;47.934;33.430;2023-04-03T05:59:16;57332.55;;;-140.43;100.00
30714;BME280;17465;47.934;33.430;2023-04-03T06:01:47;57344.20;;;-140.43;100.00
30714;BME280;17465;47.934;33.430;2023-04-03T06:04:18;57332.55;;;-140.43;100.00
30714;BME280;17465;47.934;33.430;2023-04-03T06:06:59;57353.73;;;-140.43;100.00
30714;BME280;17465;47.934;33.430;2023-04-03T06:09:29;57331.49;;;-140.43;100.00
30714;BME280;17465;47.934;33.430;2023-04-03T06:12:02;57331.49;;;-140.43;100.00
30714;BME280;17465;47.934;33.430;2023-04-03T06:14:32;57359.03;;;-140.43;100.00
30714;BME280;17465;47.934;33.430;2023-04-03T06:17:04;57344.20;;;-140.43;100.00
30714;BME280;17465;47.934;33.430;2023-04-03T06:19:39;57337.84;;;-140.43;100.00
30714;BME280;17465;47.934;33.430;2023-04-03T06:22:11;57319.84;;;-140.43;100.00
30714;BME280;17465;47.934;33.430;2023-04-03T06:24:41;57351.61;;;-140.43;100.00
30714;BME280;17465;47.934;33.430;2023-04-03T06:27:13;57324.07;;;-140.43;100.00
30714;BME280;17465;47.934;33.430;2023-04-03T06:29:44;57324.07;;;-140.43;100.00
30714;BME280;17465;47.934;33.430;2023-04-03T06:32:15;57347.38;;;-140.43;100.00
30714;BME280;17465;47.934;33.430;2023-04-03T06:34:46;57342.08;;;-140.43;100.00
30714;BME280;17465;47.934;33.430;2023-04-03T06:37:36;57316.66;;;-140.43;100.00
30714;BME280;17465;47.934;33.430;2023-04-03T06:40:13;57328.31;;;-140.43;100.00
30714;BME280;17465;47.934;33.430;2023-04-03T06:42:41;57328.31;;;-140.43;100.00
30714;BME280;17465;47.934;33.430;2023-04-03T06:45:12;57350.55;;;-140.43;100.00
30714;BME280;17465;47.934;33.430;2023-04-03T06:47:44;57323.02;;;-140.43;100.00
30714;BME280;17465;47.934;33.430;2023-04-03T06:50:15;57341.02;;;-140.43;100.00
30714;BME280;17465;47.934;33.430;2023-04-03T06:52:47;57361.14;;;-140.43;100.00
30714;BME280;17465;47.934;33.430;2023-04-03T06:55:21;57361.14;;;-140.43;100.00
30714;BME280;17465;47.934;33.430;2023-04-03T06:57:57;57366.44;;;-140.43;100.00
30714;BME280;17465;47.934;33.430;2023-04-03T07:00:31;57327.25;;;-140.43;100.00
30714;BME280;17465;47.934;33.430;2023-04-03T07:03:02;57320.90;;;-140.43;100.00
30714;BME280;17465;47.934;33.430;2023-04-03T07:05:33;57362.20;;;-140.43;100.00
30714;BME280;17465;47.934;33.430;2023-04-03T07:08:07;57324.07;;;-140.43;100.00
30714;BME280;17465;47.934;33.430;2023-04-03T07:10:38;57342.08;;;-140.43;100.00
30714;BME280;17465;47.934;33.430;2023-04-03T07:13:09;57325.14;;;-140.43;100.00
30714;BME280;17465;47.934;33.430;2023-04-03T07:15:40;57314.55;;;-140.43;100.00
30714;BME280;17465;47.934;33.430;2023-04-03T07:18:10;57364.32;;;-140.43;100.00
30714;BME280;17465;47.934;33.430;2023-04-03T07:20:41;57364.32;;;-140.43;100.00
30714;BME280;17465;47.934;33.430;2023-04-03T07:23:12;57343.14;;;-140.43;100.00
30714;BME280;17465;47.934;33.430;2023-04-03T07:25:48;57342.08;;;-140.43;100.00
30714;BME280;17465;47.934;33.430;2023-04-03T07:28:20;57319.84;;;-140.43;100.00
30714;BME280;17465;47.934;33.430;2023-04-03T07:31:02;57345.26;;;-140.43;100.00
30714;BME280;17465;47.934;33.430;2023-04-03T07:33:52;57333.61;;;-140.43;100.00
30714;BME280;17465;47.934;33.430;2023-04-03T07:36:23;57348.43;;;-140.43;100.00
30714;BME280;17465;47.934;33.430;2023-04-03T07:38:54;57334.67;;;-140.43;100.00
30714;BME280;17465;47.934;33.430;2023-04-03T07:41:25;57326.20;;;-140.43;100.00
30714;BME280;17465;47.934;33.430;2023-04-03T07:43:55;57350.55;;;-140.43;100.00
30714;BME280;17465;47.934;33.430;2023-04-03T07:46:26;57351.61;;;-140.43;100.00
30714;BME280;17465;47.934;33.430;2023-04-03T07:48:56;57343.14;;;-140.43;100.00
30714;BME280;17465;47.934;33.430;2023-04-03T07:51:27;57325.14;;;-140.43;100.00
30714;BME280;17465;47.934;33.430;2023-04-03T07:53:58;57328.31;;;-140.43;100.00
30714;BME280;17465;47.934;33.430;2023-04-03T07:56:28;57331.49;;;-140.43;100.00
30714;BME280;17465;47.934;33.430;2023-04-03T07:59:00;57350.55;;;-140.43;100.00
30714;BME280;17465;47.934;33.430;2023-04-03T08:01:30;57334.67;;;-140.43;100.00
30714;BME280;17465;47.934;33.430;2023-04-03T08:04:02;57334.67;;;-140.43;100.00
30714;BME280;17465;47.934;33.430;2023-04-03T08:06:34;57344.20;;;-140.43;100.00
30714;BME280;17465;47.934;33.430;2023-04-03T08:09:06;57331.49;;;-140.43;100.00
30714;BME280;17465;47.934;33.430;2023-04-03T08:11:39;57354.79;;;-140.43;100.00
30714;BME280;17465;47.934;33.430;2023-04-03T08:14:10;57338.90;;;-140.43;100.00
30714;BME280;17465;47.934;33.430;2023-04-03T08:16:41;57338.90;;;-140.43;100.00
30714;BME280;17465;47.934;33.430;2023-04-03T08:19:14;57318.78;;;-140.43;100.00
30714;BME280;17465;47.934;33.430;2023-04-03T08:21:46;57320.90;;;-140.43;100.00
30714;BME280;17465;47.934;33.430;2023-04-03T08:24:17;57342.08;;;-140.43;100.00
30714;BME280;17465;47.934;33.430;2023-04-03T08:26:47;57316.66;;;-140.43;100.00
30714;BME280;17465;47.934;33.430;2023-04-03T08:29:18;57316.66;;;-140.43;100.00
30714;BME280;17465;47.934;33.430;2023-04-03T08:31:49;57313.48;;;-140.43;100.00
30714;BME280;17465;47.934;33.430;2023-04-03T08:34:21;57308.19;;;-140.43;100.00
30714;BME280;17465;47.934;33.430;2023-04-03T08:36:52;57320.90;;;-140.43;100.00
30714;BME280;17465;47.934;33.430;2023-04-03T08:39:23;57341.02;;;-140.43;100.00
30714;BME280;17465;47.934;33.430;2023-04-03T08:41:56;57335.73;;;-140.43;100.00
30714;BME280;17465;47.934;33.430;2023-04-03T08:47:37;57342.08;;;-140.43;100.00
30714;BME280;17465;47.934;33.430;2023-04-03T08:50:06;57335.73;;;-140.43;100.00
30714;BME280;17465;47.934;33.430;2023-04-03T08:52:52;57336.79;;;-140.43;100.00
30714;BME280;17465;47.934;33.430;2023-04-03T08:55:29;57333.61;;;-140.43;100.00
30714;BME280;17465;47.934;33.430;2023-04-03T08:58:09;57336.79;;;-140.43;100.00
30714;BME280;17465;47.934;33.430;2023-04-03T09:00:53;57323.02;;;-140.43;100.00
30714;BME280;17465;47.934;33.430;2023-04-03T09:03:25;57323.02;;;-140.43;100.00
30714;BME280;17465;47.934;33.430;2023-04-03T09:06:14;57349.49;;;-140.43;100.00
30714;BME280;17465;47.934;33.430;2023-04-03T09:08:52;57349.49;;;-140.43;100.00
30714;BME280;17465;47.934;33.430;2023-04-03T09:14:36;57339.96;;;-140.43;100.00
30714;BME280;17465;47.934;33.430;2023-04-03T09:20:31;57302.89;;;-140.43;100.00
30714;BME280;17465;47.934;33.430;2023-04-03T09:23:28;57354.79;;;-140.43;100.00
30714;BME280;17465;47.934;33.430;2023-04-03T09:25:36;57337.84;;;-140.43;100.00
30714;BME280;17465;47.934;33.430;2023-04-03T09:28:09;57292.30;;;-140.43;100.00
30714;BME280;17465;47.934;33.430;2023-04-03T09:30:41;57291.25;;;-140.43;100.00
30714;BME280;17465;47.934;33.430;2023-04-03T09:33:16;57291.25;;;-140.43;100.00
30714;BME280;17465;47.934;33.430;2023-04-03T09:35:50;57334.67;;;-140.43;100.00
30714;BME280;17465;47.934;33.430;2023-04-03T09:38:22;57331.49;;;-140.43;100.00
30714;BME280;17465;47.934;33.430;2023-04-03T09:41:13;57328.31;;;-140.43;100.00
30714;BME280;17465;47.934;33.430;2023-04-03T09:43:51;57319.84;;;-140.43;100.00
30714;BME280;17465;47.934;33.430;2023-04-03T09:46:30;57328.31;;;-140.43;100.00
30714;BME280;17465;47.934;33.430;2023-04-03T09:49:04;57319.84;;;-140.43;100.00
30714;BME280;17465;47.934;33.430;2023-04-03T09:51:43;57310.31;;;-140.43;100.00
30714;BME280;17465;47.934;33.430;2023-04-03T09:57:16;57337.84;;;-140.43;100.00
30714;BME280;17465;47.934;33.430;2023-04-03T09:59:58;57337.84;;;-140.43;100.00
30714;BME280;17465;47.934;33.430;2023-04-03T10:02:40;57319.84;;;-140.43;100.00
30714;BME280;17465;47.934;33.430;2023-04-03T10:05:38;57338.90;;;-140.43;100.00
30714;BME280;17465;47.934;33.430;2023-04-03T10:14:16;56364.71;;;-140.43;100.00
30714;BME280;17465;47.934;33.430;2023-04-03T10:16:52;57333.61;;;-140.43;100.00
30714;BME280;17465;47.934;33.430;2023-04-03T10:22:46;57290.18;;;-140.43;100.00
30714;BME280;17465;47.934;33.430;2023-04-03T10:25:29;57329.37;;;-140.43;100.00
30714;BME280;17465;47.934;33.430;2023-04-03T10:28:06;57324.07;;;-140.43;100.00
30714;BME280;17465;47.934;33.430;2023-04-03T10:31:04;57332.55;;;-140.43;100.00
30714;BME280;17465;47.934;33.430;2023-04-03T10:36:38;57354.79;;;-140.43;100.00
30714;BME280;17465;47.934;33.430;2023-04-03T10:39:20;57337.84;;;-140.43;100.00
30714;BME280;17465;47.934;33.430;2023-04-03T10:44:51;57337.84;;;-140.43;100.00
30714;BME280;17465;47.934;33.430;2023-04-03T10:58:40;57323.02;;;-140.43;100.00
30714;BME280;17465;47.934;33.430;2023-04-03T11:01:20;57326.20;;;-140.43;99.10
30714;BME280;17465;47.934;33.430;2023-04-03T11:04:00;57345.26;;;-140.43;100.00
30714;BME280;17465;47.934;33.430;2023-04-03T11:06:44;57345.26;;;-140.43;100.00
30714;BME280;17465;47.934;33.430;2023-04-03T11:09:21;57341.02;;;-140.43;99.63
30714;BME280;17465;47.934;33.430;2023-04-03T11:11:54;57327.25;;;-140.43;97.95
30714;BME280;17465;47.934;33.430;2023-04-03T11:14:28;57324.07;;;-140.43;98.10
30714;BME280;17465;47.934;33.430;2023-04-03T11:17:25;57334.67;;;-140.43;98.71
30714;BME280;17465;47.934;33.430;2023-04-03T11:25:43;57343.14;;;-140.43;99.11
30714;BME280;17465;47.934;33.430;2023-04-03T11:28:20;57342.08;;;-140.43;98.76
30714;BME280;17465;47.934;33.430;2023-04-03T11:31:13;57344.20;;;-140.43;99.90
30714;BME280;17465;47.934;33.430;2023-04-03T11:33:51;57338.90;;;-140.43;99.91
30714;BME280;17465;47.934;33.430;2023-04-03T11:36:25;57338.90;;;-140.43;99.91
30714;BME280;17465;47.934;33.430;2023-04-03T11:39:00;57347.38;;;-140.43;100.00
30714;BME280;17465;47.934;33.430;2023-04-03T11:41:38;57329.37;;;-140.43;99.52
30714;BME280;17465;47.934;33.430;2023-04-03T11:44:31;57357.96;;;-140.43;100.00
30714;BME280;17465;47.934;33.430;2023-04-03T11:46:53;57329.37;;;-140.43;99.87
30714;BME280;17465;47.934;33.430;2023-04-03T11:49:56;57346.32;;;-140.43;100.00
30714;BME280;17465;47.934;33.430;2023-04-03T11:58:04;57338.90;;;-140.43;97.55
30714;BME280;17465;47.934;33.430;2023-04-03T12:08:44;57326.20;;;-140.43;97.59
30714;BME280;17465;47.934;33.430;2023-04-03T12:14:04;57341.02;;;-140.43;97.32
30714;BME280;17465;47.934;33.430;2023-04-03T12:24:38;57355.85;;;-140.43;97.35
30714;BME280;17465;47.934;33.430;2023-04-03T12:27:17;57343.14;;;-140.43;98.07
30714;BME280;17465;47.934;33.430;2023-04-03T12:29:53;57337.84;;;-140.43;98.09
30714;BME280;17465;47.934;33.430;2023-04-03T12:32:58;57334.67;;;-140.43;96.70
30714;BME280;17465;47.934;33.430;2023-04-03T12:35:34;57308.19;;;-140.43;96.57
30714;BME280;17465;47.934;33.430;2023-04-03T12:44:25;57328.31;;;-140.43;94.89
30714;BME280;17465;47.934;33.430;2023-04-03T12:46:55;57344.20;;;-140.43;94.58
30714;BME280;17465;47.934;33.430;2023-04-03T12:52:27;57336.79;;;-140.43;92.70
30714;BME280;17465;47.934;33.430;2023-04-03T12:54:39;57336.79;;;-140.43;92.70
30714;BME280;17465;47.934;33.430;2023-04-03T12:57:16;57348.43;;;-140.43;91.77
30714;BME280;17465;47.934;33.430;2023-04-03T12:59:45;57367.50;;;-140.43;91.56
30714;BME280;17465;47.934;33.430;2023-04-03T13:02:28;57367.50;;;-140.43;91.56
30714;BME280;17465;47.934;33.430;2023-04-03T13:05:03;57352.67;;;-140.43;92.74
30714;BME280;17465;47.934;33.430;2023-04-03T13:07:34;57370.68;;;-140.43;94.27
30714;BME280;17465;47.934;33.430;2023-04-03T13:15:29;57331.49;;;-140.43;90.24
30714;BME280;17465;47.934;33.430;2023-04-03T13:18:00;57331.49;;;-140.43;91.40
30714;BME280;17465;47.934;33.430;2023-04-03T13:20:33;57332.55;;;-140.43;92.62
30714;BME280;17465;47.934;33.430;2023-04-03T13:23:07;57332.55;;;-140.43;92.62
30714;BME280;17465;47.934;33.430;2023-04-03T13:25:41;57345.26;;;-140.43;91.96
30714;BME280;17465;47.934;33.430;2023-04-03T13:28:20;57333.61;;;-140.43;92.98
30714;BME280;17465;47.934;33.430;2023-04-03T13:30:54;57348.43;;;-140.43;94.31
30714;BME280;17465;47.934;33.430;2023-04-03T13:33:29;57338.90;;;-140.43;93.92
30714;BME280;17465;47.934;33.430;2023-04-03T13:36:17;57346.32;;;-140.43;94.38
30714;BME280;17465;47.934;33.430;2023-04-03T13:41:45;57326.20;;;-140.43;94.12
30714;BME280;17465;47.934;33.430;2023-04-03T13:44:36;57334.67;;;-140.43;93.59
30714;BME280;17465;47.934;33.430;2023-04-03T13:47:20;57328.31;;;-140.43;94.00
30714;BME280;17465;47.934;33.430;2023-04-03T13:50:17;57342.08;;;-140.43;93.30
30714;BME280;17465;47.934;33.430;2023-04-03T13:52:55;57337.84;;;-140.43;93.46
30714;BME280;17465;47.934;33.430;2023-04-03T13:55:35;57367.50;;;-140.43;93.60
30714;BME280;17465;47.934;33.430;2023-04-03T13:58:27;57368.55;;;-140.43;92.89
30714;BME280;17465;47.934;33.430;2023-04-03T14:01:20;57333.61;;;-140.43;91.91
30714;BME280;17465;47.934;33.430;2023-04-03T14:03:58;57335.73;;;-140.43;92.07
30714;BME280;17465;47.934;33.430;2023-04-03T14:06:37;57337.84;;;-140.43;93.32
30714;BME280;17465;47.934;33.430;2023-04-03T14:09:05;57365.38;;;-140.43;92.87
30714;BME280;17465;47.934;33.430;2023-04-03T14:11:38;57341.02;;;-140.43;92.46
30714;BME280;17465;47.934;33.430;2023-04-03T14:14:21;57366.44;;;-140.43;92.52
30714;BME280;17465;47.934;33.430;2023-04-03T14:16:52;57346.32;;;-140.43;94.36
30714;BME280;17465;47.934;33.430;2023-04-03T14:19:26;57379.15;;;-140.43;93.05
30714;BME280;17465;47.934;33.430;2023-04-03T14:21:58;57338.90;;;-140.43;92.61
30714;BME280;17465;47.934;33.430;2023-04-03T14:24:29;57346.32;;;-140.43;91.98
30714;BME280;17465;47.934;33.430;2023-04-03T14:27:01;57346.32;;;-140.43;92.56
30714;BME280;17465;47.934;33.430;2023-04-03T14:29:33;57351.61;;;-140.43;94.13